createdAt,value
2023-01-05T05:00:37.540Z,0.00
2023-01-05T05:01:37.573Z,0.00
2023-01-05T05:02:37.574Z,0.00
2023-01-05T05:03:37.589Z,0.00
2023-01-05T05:04:37.452Z,0.00
2023-01-05T05:05:37.473Z,0.00
2023-01-05T05:06:37.450Z,0.00
2023-01-05T05:07:37.471Z,0.00
2023-01-05T05:08:37.412Z,0.00
2023-01-05T05:09:37.398Z,0.00
2023-01-05T05:10:37.408Z,0.00
2023-01-05T05:11:37.396Z,0.00
2023-01-05T05:12:37.401Z,0.00
2023-01-05T05:13:37.364Z,0.00
2023-01-05T05:14:37.347Z,0.00
2023-01-05T05:15:37.427Z,0.00
2023-01-05T05:16:37.358Z,0.00
2023-01-05T05:17:37.325Z,0.00
2023-01-05T05:18:37.296Z,0.00
2023-01-05T05:19:37.294Z,0.00
2023-01-05T05:20:37.287Z,0.00
2023-01-05T05:21:37.266Z,0.00
2023-01-05T05:22:37.286Z,0.00
2023-01-05T05:23:37.264Z,0.00
2023-01-05T05:24:37.259Z,0.00
2023-01-05T05:25:37.228Z,0.00
2023-01-05T05:26:37.224Z,0.00
2023-01-05T05:27:37.198Z,0.00
2023-01-05T05:28:37.206Z,0.00
2023-01-05T05:29:37.202Z,0.00
2023-01-05T05:30:37.168Z,0.00
2023-01-05T05:31:37.258Z,0.00
2023-01-05T05:32:43.788Z,0.00
2023-01-05T05:33:38.156Z,0.00
2023-01-05T05:34:37.153Z,0.00
2023-01-05T05:35:37.128Z,0.00
2023-01-05T05:36:37.106Z,0.00
2023-01-05T05:37:37.128Z,0.00
2023-01-05T05:38:37.082Z,0.00
2023-01-05T05:39:37.091Z,0.00
2023-01-05T05:40:37.085Z,0.00
2023-01-05T05:41:37.058Z,0.00
2023-01-05T05:42:37.061Z,0.00
2023-01-05T05:43:37.042Z,0.00
2023-01-05T05:44:37.038Z,0.00
2023-01-05T05:45:37.014Z,0.00
2023-01-05T05:46:37.183Z,0.00
2023-01-05T05:47:36.993Z,0.00
2023-01-05T05:48:37.009Z,0.00
2023-01-05T05:49:36.985Z,0.00
2023-01-05T05:50:36.952Z,0.00
2023-01-05T05:51:36.947Z,0.00
2023-01-05T05:52:36.935Z,0.00
2023-01-05T05:53:36.969Z,0.00
2023-01-05T05:54:36.908Z,0.00
2023-01-05T05:55:36.900Z,0.00
2023-01-05T05:56:36.912Z,0.00
2023-01-05T05:57:36.884Z,0.00
2023-01-05T05:58:36.860Z,0.00
2023-01-05T05:59:36.867Z,0.00
2023-01-05T06:00:36.848Z,0.00
2023-01-05T06:01:37.029Z,0.00
2023-01-05T06:02:37.041Z,0.00
2023-01-05T06:03:36.883Z,0.00
2023-01-05T06:04:36.815Z,0.00
2023-01-05T06:05:36.807Z,0.00
2023-01-05T06:06:36.789Z,0.00
2023-01-05T06:07:36.792Z,0.00
2023-01-05T06:08:36.761Z,0.00
2023-01-05T06:09:36.744Z,0.00
2023-01-05T06:10:36.734Z,0.00
2023-01-05T06:11:36.759Z,0.00
2023-01-05T06:12:36.730Z,0.00
2023-01-05T06:13:36.731Z,0.00
2023-01-05T06:14:36.698Z,0.00
2023-01-05T06:15:36.695Z,0.00
2023-01-05T06:16:36.731Z,0.00
2023-01-05T06:17:36.693Z,0.00
2023-01-05T06:18:36.674Z,0.00
2023-01-05T06:19:36.660Z,0.00
2023-01-05T06:20:36.646Z,0.00
2023-01-05T06:21:36.616Z,0.00
2023-01-05T06:22:36.618Z,0.00
2023-01-05T06:23:36.596Z,0.00
2023-01-05T06:24:36.629Z,0.00
2023-01-05T06:25:36.580Z,0.00
2023-01-05T06:26:36.577Z,0.00
2023-01-05T06:27:36.549Z,0.00
2023-01-05T06:28:36.558Z,0.00
2023-01-05T06:29:36.529Z,0.00
2023-01-05T06:30:36.537Z,0.00
2023-01-05T06:31:36.550Z,0.00
2023-01-05T06:32:36.509Z,0.00
2023-01-05T06:33:36.507Z,0.00
2023-01-05T06:34:36.475Z,0.00
2023-01-05T06:35:36.481Z,0.00
2023-01-05T06:36:36.509Z,0.00
2023-01-05T06:37:36.450Z,0.00
2023-01-05T06:38:36.442Z,0.00
2023-01-05T06:39:36.452Z,0.00
2023-01-05T06:40:36.407Z,0.00
2023-01-05T06:41:36.416Z,0.00
2023-01-05T06:42:36.424Z,0.00
2023-01-05T06:43:36.409Z,0.00
2023-01-05T06:44:36.365Z,0.00
2023-01-05T06:45:36.391Z,0.00
2023-01-05T06:46:36.345Z,0.00
2023-01-05T06:47:36.364Z,0.00
2023-01-05T06:48:36.337Z,0.00
2023-01-05T06:49:36.323Z,0.00
2023-01-05T06:50:36.359Z,0.00
2023-01-05T06:51:36.304Z,0.00
2023-01-05T06:52:36.361Z,0.00
2023-01-05T06:53:36.280Z,0.00
2023-01-05T06:54:36.279Z,0.00
2023-01-05T06:55:36.244Z,0.00
2023-01-05T06:56:36.266Z,0.00
2023-01-05T06:57:36.243Z,0.00
2023-01-05T06:58:36.211Z,0.00
2023-01-05T06:59:36.211Z,0.00
2023-01-05T07:00:36.246Z,0.00
2023-01-05T07:01:36.346Z,0.00
2023-01-05T07:02:36.201Z,0.00
2023-01-05T07:03:36.173Z,0.00
2023-01-05T07:04:36.168Z,0.00
2023-01-05T07:05:36.143Z,0.00
2023-01-05T07:06:36.206Z,0.00
2023-01-05T07:07:36.141Z,0.00
2023-01-05T07:08:36.132Z,0.00
2023-01-05T07:09:36.105Z,0.00
2023-01-05T07:10:36.102Z,0.00
2023-01-05T07:11:36.095Z,0.00
2023-01-05T07:12:36.067Z,0.00
2023-01-05T07:13:36.056Z,0.00
2023-01-05T07:14:36.087Z,4.00
2023-01-05T07:15:36.046Z,4.00
2023-01-05T07:16:36.114Z,0.00
2023-01-05T07:17:36.065Z,0.00
2023-01-05T07:18:35.995Z,0.00
2023-01-05T07:19:36.010Z,4.00
2023-01-05T07:20:35.976Z,4.00
2023-01-05T07:21:35.994Z,4.00
2023-01-05T07:22:35.989Z,0.00
2023-01-05T07:23:35.972Z,4.00
2023-01-05T07:24:35.983Z,4.00
2023-01-05T07:25:35.965Z,4.00
2023-01-05T07:26:35.915Z,4.00
2023-01-05T07:27:35.925Z,4.00
2023-01-05T07:28:35.891Z,8.00
2023-01-05T07:29:35.903Z,4.00
2023-01-05T07:30:35.870Z,4.00
2023-01-05T07:31:35.986Z,4.00
2023-01-05T07:32:35.849Z,4.00
2023-01-05T07:33:39.520Z,4.00
2023-01-05T07:34:35.839Z,4.00
2023-01-05T07:35:35.915Z,4.00
2023-01-05T07:36:35.801Z,8.00
2023-01-05T07:37:35.812Z,8.00
2023-01-05T07:38:35.790Z,8.00
2023-01-05T07:39:35.777Z,12.00
2023-01-05T07:40:35.777Z,8.00
2023-01-05T07:41:35.810Z,12.00
2023-01-05T07:42:35.767Z,12.00
2023-01-05T07:43:35.782Z,12.00
2023-01-05T07:44:35.714Z,12.00
2023-01-05T07:45:35.762Z,12.00
2023-01-05T07:46:35.696Z,16.00
2023-01-05T07:47:35.730Z,12.00
2023-01-05T07:48:35.692Z,16.00
2023-01-05T07:49:35.667Z,12.00
2023-01-05T07:50:35.669Z,16.00
2023-01-05T07:51:35.701Z,12.00
2023-01-05T07:52:35.654Z,12.00
2023-01-05T07:53:43.326Z,12.00
2023-01-05T07:54:36.612Z,12.00
2023-01-05T07:55:35.625Z,12.00
2023-01-05T07:56:35.625Z,20.00
2023-01-05T07:57:35.592Z,20.00
2023-01-05T07:58:35.628Z,20.00
2023-01-05T07:59:35.608Z,24.00
2023-01-05T08:00:35.547Z,28.00
2023-01-05T08:01:35.658Z,20.00
2023-01-05T08:02:36.165Z,16.00
2023-01-05T08:03:35.512Z,16.00
2023-01-05T08:04:35.640Z,20.00
2023-01-05T08:05:35.544Z,24.00
2023-01-05T08:06:35.498Z,24.00
2023-01-05T08:07:35.499Z,16.00
2023-01-05T08:08:35.484Z,16.00
2023-01-05T08:09:35.476Z,16.00
2023-01-05T08:10:35.434Z,16.00
2023-01-05T08:11:35.468Z,20.00
2023-01-05T08:12:35.425Z,24.00
2023-01-05T08:13:35.398Z,24.00
2023-01-05T08:14:35.392Z,24.00
2023-01-05T08:15:35.381Z,28.00
2023-01-05T08:16:35.465Z,36.00
2023-01-05T08:17:35.429Z,52.00
2023-01-05T08:18:35.349Z,52.00
2023-01-05T08:19:35.338Z,56.00
2023-01-05T08:20:35.329Z,44.00
2023-01-05T08:21:35.343Z,36.00
2023-01-05T08:22:35.301Z,32.00
2023-01-05T08:23:35.333Z,36.00
2023-01-05T08:24:35.351Z,44.00
2023-01-05T08:25:35.293Z,60.00
2023-01-05T08:26:35.366Z,48.00
2023-01-05T08:27:35.275Z,44.00
2023-01-05T08:28:35.905Z,48.00
2023-01-05T08:29:35.262Z,52.00
2023-01-05T08:30:35.769Z,52.00
2023-01-05T08:31:35.322Z,56.00
2023-01-05T08:32:35.198Z,64.00
2023-01-05T08:33:35.210Z,76.00
2023-01-05T08:34:36.350Z,84.00
2023-01-05T08:35:35.165Z,96.00
2023-01-05T08:36:35.154Z,96.00
2023-01-05T08:37:35.172Z,100.00
2023-01-05T08:38:35.194Z,100.00
2023-01-05T08:39:38.981Z,96.00
2023-01-05T08:40:35.138Z,96.00
2023-01-05T08:41:35.117Z,84.00
2023-01-05T08:42:35.102Z,88.00
2023-01-05T08:43:35.101Z,88.00
2023-01-05T08:44:35.083Z,92.00
2023-01-05T08:45:35.088Z,92.00
2023-01-05T08:46:35.062Z,92.00
2023-01-05T08:47:35.135Z,84.00
2023-01-05T08:48:35.021Z,80.00
2023-01-05T08:49:35.041Z,76.00
2023-01-05T08:50:35.724Z,80.00
2023-01-05T08:51:35.743Z,88.00
2023-01-05T08:52:35.795Z,92.00
2023-01-05T08:53:36.298Z,92.00
2023-01-05T08:54:34.979Z,96.00
2023-01-05T08:55:34.945Z,100.00
2023-01-05T08:56:38.930Z,108.00
2023-01-05T08:57:35.059Z,124.00
2023-01-05T08:58:35.723Z,120.00
2023-01-05T08:59:34.985Z,112.00
2023-01-05T09:00:34.926Z,108.00
2023-01-05T09:01:35.786Z,108.00
2023-01-05T09:02:35.973Z,100.00
2023-01-05T09:03:36.763Z,100.00
2023-01-05T09:04:34.876Z,108.00
2023-01-05T09:05:37.861Z,108.00
2023-01-05T09:06:37.760Z,100.00
2023-01-05T09:07:35.715Z,100.00
2023-01-05T09:08:34.850Z,100.00
2023-01-05T09:09:35.308Z,108.00
2023-01-05T09:10:34.868Z,112.00
2023-01-05T09:11:35.723Z,112.00
2023-01-05T09:12:35.719Z,116.00
2023-01-05T09:13:34.772Z,128.00
2023-01-05T09:14:35.267Z,120.00
2023-01-05T09:15:34.754Z,120.00
2023-01-05T09:17:06.364Z,128.00
2023-01-05T09:17:35.763Z,140.00
2023-01-05T09:18:34.706Z,148.00
2023-01-05T09:19:34.690Z,140.00
2023-01-05T09:20:39.825Z,132.00
2023-01-05T09:21:35.675Z,136.00
2023-01-05T09:22:34.667Z,144.00
2023-01-05T09:23:34.693Z,144.00
2023-01-05T09:24:34.645Z,140.00
2023-01-05T09:25:34.624Z,128.00
2023-01-05T09:26:34.624Z,152.00
2023-01-05T09:27:34.621Z,168.00
2023-01-05T09:28:34.611Z,176.00
2023-01-05T09:29:34.602Z,180.00
2023-01-05T09:30:41.903Z,180.00
2023-01-05T09:31:35.632Z,164.00
2023-01-05T09:32:34.565Z,144.00
2023-01-05T09:33:34.567Z,124.00
2023-01-05T09:34:34.565Z,100.00
2023-01-05T09:35:34.520Z,80.00
2023-01-05T09:36:34.547Z,68.00
2023-01-05T09:37:34.499Z,60.00
2023-01-05T09:38:34.519Z,56.00
2023-01-05T09:39:34.493Z,68.00
2023-01-05T09:40:34.470Z,80.00
2023-01-05T09:41:34.447Z,92.00
2023-01-05T09:42:35.303Z,128.00
2023-01-05T09:43:34.440Z,144.00
2023-01-05T09:44:34.451Z,148.00
2023-01-05T09:45:34.405Z,172.00
2023-01-05T09:46:34.423Z,172.00
2023-01-05T09:47:35.228Z,172.00
2023-01-05T09:48:35.225Z,176.00
2023-01-05T09:49:35.216Z,160.00
2023-01-05T09:50:34.354Z,152.00
2023-01-05T09:51:34.342Z,152.00
2023-01-05T09:52:38.019Z,172.00
2023-01-05T09:53:36.217Z,164.00
2023-01-05T09:54:34.331Z,168.00
2023-01-05T09:55:34.384Z,160.00
2023-01-05T09:57:07.919Z,136.00
2023-01-05T09:57:36.221Z,148.00
2023-01-05T09:58:34.291Z,160.00
2023-01-05T09:59:34.785Z,184.00
2023-01-05T10:00:34.276Z,196.00
2023-01-05T10:01:35.255Z,196.00
2023-01-05T10:02:34.324Z,224.00
2023-01-05T10:04:02.961Z,252.00
2023-01-05T10:04:35.416Z,256.00
2023-01-05T10:05:34.319Z,248.00
2023-01-05T10:06:34.243Z,220.00
2023-01-05T10:07:34.323Z,196.00
2023-01-05T10:08:34.760Z,212.00
2023-01-05T10:09:34.204Z,244.00
2023-01-05T10:10:35.301Z,232.00
2023-01-05T10:11:35.251Z,216.00
2023-01-05T10:12:34.171Z,212.00
2023-01-05T10:13:35.227Z,208.00
2023-01-05T10:14:34.109Z,188.00
2023-01-05T10:15:34.760Z,208.00
2023-01-05T10:16:34.195Z,236.00
2023-01-05T10:17:43.294Z,244.00
2023-01-05T10:18:35.065Z,260.00
2023-01-05T10:19:34.722Z,260.00
2023-01-05T10:20:34.831Z,264.00
2023-01-05T10:21:34.055Z,272.00
2023-01-05T10:22:38.590Z,276.00
2023-01-05T10:23:34.001Z,280.00
2023-01-05T10:24:34.712Z,280.00
2023-01-05T10:25:34.798Z,268.00
2023-01-05T10:26:58.204Z,280.00
2023-01-05T10:27:34.952Z,312.00
2023-01-05T10:28:34.025Z,324.00
2023-01-05T10:29:34.720Z,332.00
2023-01-05T10:30:34.018Z,332.00
2023-01-05T10:41:23.483Z,388.00
2023-01-05T10:42:21.562Z,380.00
2023-01-05T10:43:21.545Z,376.00
2023-01-05T10:44:22.774Z,368.00
2023-01-05T10:45:21.528Z,436.00
2023-01-05T10:46:34.986Z,452.00
2023-01-05T10:47:23.355Z,456.00
2023-01-05T10:48:22.309Z,512.00
2023-01-05T10:49:21.478Z,916.00
2023-01-05T10:50:23.767Z,552.00
2023-01-05T10:51:22.263Z,496.00
2023-01-05T10:52:21.466Z,448.00
2023-01-05T10:53:23.271Z,412.00
2023-01-05T10:54:23.779Z,408.00
2023-01-05T10:55:21.464Z,420.00
2023-01-05T10:56:22.404Z,432.00
2023-01-05T10:57:24.958Z,424.00
2023-01-05T10:58:22.453Z,424.00
2023-01-05T10:59:21.478Z,436.00
2023-01-05T11:00:21.458Z,432.00
2023-01-05T11:01:21.585Z,456.00
2023-01-05T11:02:21.476Z,484.00
2023-01-05T11:03:33.578Z,468.00
2023-01-05T11:04:34.865Z,472.00
2023-01-05T11:05:22.523Z,488.00
2023-01-05T11:06:21.554Z,468.00
2023-01-05T11:07:21.312Z,416.00
2023-01-05T11:08:21.364Z,616.00
2023-01-05T11:09:22.593Z,684.00
2023-01-05T11:10:21.253Z,460.00
2023-01-05T11:11:21.254Z,464.00
2023-01-05T11:12:21.255Z,452.00
2023-01-05T11:13:21.330Z,444.00
2023-01-05T11:14:21.224Z,372.00
2023-01-05T11:15:21.194Z,420.00
2023-01-05T11:16:21.235Z,440.00
2023-01-05T11:17:21.187Z,496.00
2023-01-05T11:18:21.167Z,452.00
2023-01-05T11:19:21.150Z,608.00
2023-01-05T11:20:21.180Z,472.00
2023-01-05T11:21:21.134Z,476.00
2023-01-05T11:22:21.137Z,468.00
2023-01-05T11:23:21.141Z,588.00
2023-01-05T11:24:21.116Z,436.00
2023-01-05T11:25:21.088Z,444.00
2023-01-05T11:26:21.075Z,452.00
2023-01-05T11:27:21.076Z,464.00
2023-01-05T11:28:21.098Z,424.00
2023-01-05T11:29:21.211Z,384.00
2023-01-05T11:30:21.044Z,404.00
2023-01-05T11:31:21.127Z,372.00
2023-01-05T11:32:21.015Z,388.00
2023-01-05T11:33:25.083Z,528.00
2023-01-05T11:34:21.009Z,564.00
2023-01-05T11:35:21.007Z,352.00
2023-01-05T11:36:20.962Z,368.00
2023-01-05T11:37:20.946Z,564.00
2023-01-05T11:38:20.947Z,380.00
2023-01-05T11:39:20.955Z,416.00
2023-01-05T11:40:20.933Z,400.00
2023-01-05T11:41:20.951Z,400.00
2023-01-05T11:42:25.384Z,392.00
2023-01-05T11:43:21.897Z,396.00
2023-01-05T11:44:20.892Z,400.00
2023-01-05T11:45:20.993Z,360.00
2023-01-05T11:46:20.944Z,332.00
2023-01-05T11:47:20.889Z,340.00
2023-01-05T11:48:20.838Z,324.00
2023-01-05T11:49:20.818Z,324.00
2023-01-05T11:50:20.850Z,336.00
2023-01-05T11:51:27.487Z,344.00
2023-01-05T11:52:21.790Z,352.00
2023-01-05T11:53:20.783Z,364.00
2023-01-05T11:54:20.782Z,376.00
2023-01-05T11:55:20.811Z,472.00
2023-01-05T11:56:21.267Z,384.00
2023-01-05T11:57:21.261Z,424.00
2023-01-05T11:58:20.736Z,436.00
2023-01-05T11:59:20.731Z,456.00
2023-01-05T12:00:20.751Z,416.00
2023-01-05T12:01:20.882Z,496.00
2023-01-05T12:02:20.709Z,492.00
2023-01-05T12:03:20.699Z,448.00
2023-01-05T12:04:20.717Z,488.00
2023-01-05T12:05:20.657Z,512.00
2023-01-05T12:06:20.638Z,492.00
2023-01-05T12:07:20.640Z,484.00
2023-01-05T12:08:20.633Z,484.00
2023-01-05T12:09:20.690Z,480.00
2023-01-05T12:10:20.594Z,476.00
2023-01-05T12:11:20.581Z,452.00
2023-01-05T12:12:20.602Z,448.00
2023-01-05T12:13:20.559Z,440.00
2023-01-05T12:14:20.571Z,456.00
2023-01-05T12:15:20.556Z,460.00
2023-01-05T12:16:20.577Z,404.00
2023-01-05T12:17:20.627Z,392.00
2023-01-05T12:18:20.525Z,392.00
2023-01-05T12:19:20.484Z,400.00
2023-01-05T12:20:20.483Z,412.00
2023-01-05T12:21:20.477Z,412.00
2023-01-05T12:22:20.499Z,404.00
2023-01-05T12:23:20.464Z,392.00
2023-01-05T12:24:20.438Z,368.00
2023-01-05T12:25:20.445Z,344.00
2023-01-05T12:26:20.451Z,328.00
2023-01-05T12:27:20.437Z,300.00
2023-01-05T12:28:39.808Z,244.00
2023-01-05T12:34:21.319Z,260.00
2023-01-05T12:35:20.336Z,324.00
2023-01-05T12:36:20.313Z,344.00
2023-01-05T12:37:20.315Z,292.00
2023-01-05T12:38:20.281Z,292.00
2023-01-05T12:39:20.280Z,296.00
2023-01-05T12:40:20.258Z,296.00
2023-01-05T12:41:20.258Z,312.00
2023-01-05T12:42:20.294Z,340.00
2023-01-05T12:43:20.237Z,356.00
2023-01-05T12:44:20.255Z,412.00
2023-01-05T12:45:20.218Z,360.00
2023-01-05T12:46:20.206Z,316.00
2023-01-05T12:47:20.196Z,304.00
2023-01-05T12:48:20.174Z,304.00
2023-01-05T12:49:20.279Z,296.00
2023-01-05T12:50:20.151Z,288.00
2023-01-05T12:51:20.147Z,304.00
2023-01-05T12:52:20.144Z,316.00
2023-01-05T12:53:20.117Z,368.00
2023-01-05T12:54:20.107Z,336.00
2023-01-05T12:55:20.095Z,332.00
2023-01-05T12:56:20.138Z,328.00
2023-01-05T12:57:20.131Z,348.00
2023-01-05T12:58:20.057Z,320.00
2023-01-05T12:59:20.044Z,320.00
2023-01-05T13:00:20.102Z,316.00
2023-01-05T13:01:20.192Z,296.00
2023-01-05T13:02:20.136Z,304.00
2023-01-05T13:03:20.028Z,308.00
2023-01-05T13:04:19.994Z,312.00
2023-01-05T13:05:20.117Z,304.00
2023-01-05T13:06:19.969Z,308.00
2023-01-05T13:07:19.954Z,308.00
2023-01-05T13:08:20.020Z,296.00
2023-01-05T13:09:19.966Z,292.00
2023-01-05T13:10:19.935Z,296.00
2023-01-05T13:11:19.917Z,296.00
2023-01-05T13:12:19.926Z,300.00
2023-01-05T13:13:19.894Z,300.00
2023-01-05T13:14:19.915Z,300.00
2023-01-05T13:15:19.885Z,292.00
2023-01-05T13:16:19.986Z,272.00
2023-01-05T13:17:19.869Z,264.00
2023-01-05T13:18:19.841Z,252.00
2023-01-05T13:19:19.843Z,248.00
2023-01-05T13:20:19.821Z,236.00
2023-01-05T13:21:19.937Z,220.00
2023-01-05T13:22:19.817Z,216.00
2023-01-05T13:23:19.783Z,216.00
2023-01-05T13:24:19.785Z,208.00
2023-01-05T13:25:19.766Z,196.00
2023-01-05T13:26:19.765Z,180.00
2023-01-05T13:27:19.846Z,164.00
2023-01-05T13:28:19.725Z,156.00
2023-01-05T13:29:19.721Z,168.00
2023-01-05T13:30:19.709Z,192.00
2023-01-05T13:31:19.702Z,208.00
2023-01-05T13:32:19.706Z,216.00
2023-01-05T13:33:19.711Z,220.00
2023-01-05T13:34:19.660Z,236.00
2023-01-05T13:35:19.648Z,248.00
2023-01-05T13:36:19.682Z,248.00
2023-01-05T13:37:19.762Z,244.00
2023-01-05T13:38:19.627Z,236.00
2023-01-05T13:39:19.626Z,228.00
2023-01-05T13:40:19.599Z,220.00
2023-01-05T13:41:19.592Z,220.00
2023-01-05T13:42:19.584Z,228.00
2023-01-05T13:43:19.591Z,240.00
2023-01-05T13:44:19.576Z,248.00
2023-01-05T13:45:19.564Z,224.00
2023-01-05T13:46:19.567Z,200.00
2023-01-05T13:47:27.053Z,196.00
2023-01-05T13:48:25.578Z,196.00
2023-01-05T13:49:20.491Z,188.00
2023-01-05T13:50:19.489Z,184.00
2023-01-05T13:51:19.498Z,172.00
2023-01-05T13:52:19.463Z,160.00
2023-01-05T13:53:19.568Z,148.00
2023-01-05T13:54:19.472Z,140.00
2023-01-05T13:55:25.803Z,136.00
2023-01-05T13:56:20.416Z,124.00
2023-01-05T13:57:19.426Z,116.00
2023-01-05T13:58:19.412Z,108.00
2023-01-05T13:59:28.983Z,104.00
2023-01-05T14:00:20.395Z,96.00
2023-01-05T14:01:19.432Z,80.00
2023-01-05T14:02:19.391Z,72.00
2023-01-05T14:03:19.352Z,68.00
2023-01-05T14:04:19.345Z,64.00
2023-01-05T14:05:19.321Z,60.00
2023-01-05T14:06:19.335Z,56.00
2023-01-05T14:07:19.304Z,56.00
2023-01-05T14:08:19.310Z,56.00
2023-01-05T14:09:19.413Z,60.00
2023-01-05T14:10:19.267Z,68.00
2023-01-05T14:11:19.256Z,76.00
2023-01-05T14:12:19.276Z,88.00
2023-01-05T14:13:19.231Z,92.00
2023-01-05T14:14:19.238Z,96.00
2023-01-05T14:15:19.216Z,92.00
2023-01-05T14:16:19.296Z,100.00
2023-01-05T14:17:19.189Z,120.00
2023-01-05T14:18:19.272Z,132.00
2023-01-05T14:19:19.234Z,140.00
2023-01-05T14:20:19.147Z,148.00
2023-01-05T14:21:19.162Z,152.00
2023-01-05T14:22:19.139Z,148.00
2023-01-05T14:23:19.123Z,148.00
2023-01-05T14:24:19.126Z,148.00
2023-01-05T14:25:19.213Z,156.00
2023-01-05T14:26:19.115Z,152.00
2023-01-05T14:27:19.079Z,148.00
2023-01-05T14:28:19.068Z,148.00
2023-01-05T14:29:19.070Z,152.00
2023-01-05T14:30:19.044Z,148.00
2023-01-05T14:31:19.147Z,144.00
2023-01-05T14:32:19.043Z,132.00
2023-01-05T14:33:19.014Z,124.00
2023-01-05T14:34:18.997Z,120.00
2023-01-05T14:35:19.019Z,116.00
2023-01-05T14:36:18.981Z,112.00
2023-01-05T14:37:18.962Z,108.00
2023-01-05T14:38:18.993Z,100.00
2023-01-05T14:39:18.956Z,96.00
2023-01-05T14:40:18.941Z,96.00
2023-01-05T14:41:19.028Z,92.00
2023-01-05T14:42:18.909Z,92.00
2023-01-05T14:43:18.922Z,92.00
2023-01-05T14:44:18.957Z,92.00
2023-01-05T14:45:18.878Z,88.00
2023-01-05T14:46:18.877Z,84.00
2023-01-05T14:47:18.872Z,80.00
2023-01-05T14:48:18.838Z,76.00
2023-01-05T14:49:18.831Z,76.00
2023-01-05T14:50:18.876Z,76.00
2023-01-05T14:51:18.817Z,68.00
2023-01-05T14:52:18.818Z,68.00
2023-01-05T14:53:18.788Z,60.00
2023-01-05T14:54:18.771Z,56.00
2023-01-05T14:55:29.943Z,52.00
2023-01-05T14:56:19.766Z,48.00
2023-01-05T14:57:18.884Z,44.00
2023-01-05T14:58:18.730Z,48.00
2023-01-05T14:59:18.719Z,52.00
2023-01-05T15:00:18.713Z,52.00
2023-01-05T15:01:18.897Z,56.00
2023-01-05T15:02:18.729Z,52.00
2023-01-05T15:04:18.703Z,44.00
2023-01-05T15:05:18.651Z,36.00
2023-01-05T15:06:18.644Z,36.00
2023-01-05T15:07:18.631Z,36.00
2023-01-05T15:08:18.636Z,36.00
2023-01-05T15:09:18.608Z,32.00
2023-01-05T15:10:18.621Z,32.00
2023-01-05T15:11:18.590Z,28.00
2023-01-05T15:12:18.572Z,32.00
2023-01-05T15:14:18.575Z,28.00
2023-01-05T15:15:18.553Z,24.00
2023-01-05T15:16:18.532Z,24.00
2023-01-05T15:17:18.523Z,24.00
2023-01-05T15:18:18.505Z,24.00
2023-01-05T15:19:18.538Z,24.00
2023-01-05T15:20:18.509Z,20.00
2023-01-05T15:21:18.522Z,20.00
2023-01-05T15:22:37.246Z,24.00
2023-01-05T15:23:19.482Z,20.00
2023-01-05T15:24:18.452Z,20.00
2023-01-05T15:25:18.429Z,16.00
2023-01-05T15:26:18.479Z,16.00
2023-01-05T15:27:18.409Z,16.00
2023-01-05T15:28:18.396Z,16.00
2023-01-05T15:29:18.520Z,12.00
2023-01-05T15:30:18.414Z,12.00
2023-01-05T15:31:18.420Z,16.00
2023-01-05T15:32:18.409Z,12.00
2023-01-05T15:33:18.334Z,12.00
2023-01-05T15:34:18.352Z,12.00
2023-01-05T15:35:18.326Z,12.00
2023-01-05T15:36:18.311Z,8.00
2023-01-05T15:37:18.300Z,8.00
2023-01-05T15:38:18.309Z,8.00
2023-01-05T15:39:18.344Z,8.00
2023-01-05T15:40:18.313Z,8.00
2023-01-05T15:41:18.257Z,4.00
2023-01-05T15:42:18.245Z,8.00
2023-01-05T15:43:18.269Z,4.00
2023-01-05T15:44:18.240Z,4.00
2023-01-05T15:45:18.333Z,4.00
2023-01-05T15:46:18.203Z,4.00
2023-01-05T15:47:18.199Z,4.00
2023-01-05T15:48:18.171Z,0.00
2023-01-05T15:49:18.196Z,4.00
2023-01-05T15:50:18.150Z,4.00
2023-01-05T15:51:18.146Z,4.00
2023-01-05T15:52:18.134Z,0.00
2023-01-05T15:53:18.145Z,0.00
2023-01-05T15:54:18.109Z,0.00
2023-01-05T15:55:18.118Z,4.00
2023-01-05T15:56:18.105Z,4.00
2023-01-05T15:57:18.086Z,4.00
2023-01-05T15:58:18.080Z,0.00
2023-01-05T15:59:18.058Z,0.00
2023-01-05T16:00:18.061Z,0.00
2023-01-05T16:01:18.157Z,0.00
2023-01-05T16:02:18.069Z,0.00
2023-01-05T16:03:18.030Z,0.00
2023-01-05T16:04:18.031Z,0.00
2023-01-05T16:05:17.984Z,0.00
2023-01-05T16:06:17.990Z,0.00
2023-01-05T16:07:17.992Z,0.00
2023-01-05T16:08:17.945Z,0.00
2023-01-05T16:09:17.963Z,0.00
2023-01-05T16:10:17.947Z,0.00
2023-01-05T16:11:17.939Z,0.00
2023-01-05T16:12:17.920Z,0.00
2023-01-05T16:13:17.963Z,0.00
2023-01-05T16:14:17.885Z,0.00
2023-01-05T16:15:17.876Z,0.00
2023-01-05T16:16:43.180Z,0.00
2023-01-05T16:17:19.014Z,0.00
2023-01-05T16:18:17.862Z,0.00
2023-01-05T16:19:17.860Z,0.00
2023-01-05T16:20:17.821Z,0.00
2023-01-05T16:21:17.968Z,0.00
2023-01-05T16:22:17.803Z,0.00
2023-01-05T16:23:17.796Z,0.00
2023-01-05T16:24:17.779Z,0.00
2023-01-05T16:25:17.785Z,0.00
2023-01-05T16:26:17.759Z,0.00
2023-01-05T16:27:17.766Z,0.00
2023-01-05T16:28:17.750Z,0.00
2023-01-05T16:29:17.728Z,0.00
2023-01-05T16:30:17.709Z,0.00
2023-01-05T16:31:17.730Z,0.00
2023-01-05T16:32:17.787Z,0.00
2023-01-05T16:33:17.823Z,0.00
2023-01-05T16:34:17.666Z,0.00
2023-01-05T16:35:17.653Z,0.00
2023-01-05T16:36:17.651Z,0.00
2023-01-05T16:37:17.661Z,0.00
2023-01-05T16:38:17.647Z,0.00
2023-01-05T16:39:17.616Z,0.00
2023-01-05T16:40:17.764Z,0.00
2023-01-05T16:41:17.589Z,0.00
2023-01-05T16:42:17.575Z,0.00
2023-01-05T16:43:17.589Z,0.00
2023-01-05T16:44:17.579Z,0.00
2023-01-05T16:45:17.547Z,0.00
2023-01-05T16:46:20.178Z,0.00
2023-01-05T16:47:17.561Z,0.00
2023-01-05T16:48:17.520Z,0.00
2023-01-05T16:49:17.641Z,0.00
2023-01-05T16:50:17.487Z,0.00
2023-01-05T16:51:17.479Z,0.00
2023-01-05T16:52:19.885Z,0.00
2023-01-05T16:53:18.496Z,0.00
2023-01-05T16:54:19.072Z,0.00
2023-01-05T16:55:23.659Z,0.00
2023-01-05T16:56:18.454Z,0.00
2023-01-05T16:57:17.419Z,0.00
2023-01-05T16:58:17.407Z,0.00
2023-01-05T16:59:17.415Z,0.00
2023-01-05T17:00:17.389Z,0.00
2023-01-05T17:01:17.487Z,0.00
2023-01-05T17:02:17.386Z,0.00
2023-01-05T17:03:17.359Z,0.00
2023-01-05T17:04:17.420Z,0.00
2023-01-05T17:05:17.455Z,0.00
2023-01-05T17:06:17.339Z,0.00
2023-01-05T17:07:19.297Z,0.00
2023-01-05T17:08:17.323Z,0.00
2023-01-05T17:09:17.285Z,0.00
2023-01-05T17:10:17.280Z,0.00
2023-01-05T17:11:17.307Z,0.00
2023-01-05T17:12:17.262Z,0.00
2023-01-05T17:13:19.658Z,0.00
2023-01-05T17:14:17.235Z,0.00
2023-01-05T17:15:17.222Z,0.00
2023-01-05T17:16:17.306Z,0.00
2023-01-05T17:18:17.206Z,0.00
2023-01-05T17:19:17.201Z,0.00
2023-01-05T17:20:17.186Z,0.00
2023-01-05T17:21:17.260Z,0.00
2023-01-05T17:22:17.169Z,0.00
2023-01-05T17:23:17.152Z,0.00
2023-01-05T17:24:17.154Z,0.00
2023-01-05T17:25:17.161Z,0.00
2023-01-05T17:26:17.105Z,0.00
2023-01-05T17:27:17.099Z,0.00
2023-01-05T17:28:17.084Z,0.00
2023-01-05T17:29:17.090Z,0.00
2023-01-05T17:30:17.103Z,0.00
2023-01-05T17:31:17.079Z,0.00
2023-01-05T17:32:17.040Z,0.00
2023-01-05T17:33:17.031Z,0.00
2023-01-05T17:34:17.067Z,0.00
2023-01-05T17:35:19.718Z,0.00
2023-01-05T17:36:19.971Z,0.00
2023-01-05T17:37:17.116Z,0.00
2023-01-05T17:38:16.974Z,0.00
2023-01-05T17:39:16.968Z,0.00
2023-01-05T17:40:17.054Z,0.00
2023-01-05T17:41:17.201Z,0.00
2023-01-05T17:42:17.480Z,0.00
2023-01-05T17:43:16.959Z,0.00
2023-01-05T17:44:16.946Z,0.00
2023-01-05T17:45:16.904Z,0.00
2023-01-05T17:46:16.972Z,0.00
2023-01-05T17:47:16.875Z,0.00
2023-01-05T17:48:17.041Z,0.00
2023-01-05T17:49:16.873Z,0.00
2023-01-05T17:50:16.844Z,0.00
2023-01-05T17:51:16.854Z,0.00
2023-01-05T17:52:16.825Z,0.00
2023-01-05T17:53:16.923Z,0.00
2023-01-05T17:54:16.877Z,0.00
2023-01-05T17:55:16.796Z,0.00
2023-01-05T17:56:18.701Z,0.00
2023-01-05T17:57:16.810Z,0.00
2023-01-05T17:58:16.775Z,0.00
2023-01-05T17:59:16.742Z,0.00
2023-01-05T18:00:18.169Z,0.00
2023-01-05T18:01:16.753Z,0.00
2023-01-05T18:02:16.825Z,0.00
2023-01-05T18:03:16.703Z,0.00
2023-01-05T18:04:16.682Z,0.00
2023-01-05T18:05:16.683Z,0.00
2023-01-05T18:06:16.712Z,0.00
2023-01-05T18:07:16.659Z,0.00
2023-01-05T18:08:16.645Z,0.00
2023-01-05T18:09:16.775Z,0.00
2023-01-05T18:10:16.622Z,0.00